Time;durP1;ratioP1;P1;durP2;ratioP2;P2;SDS_P1;SDS_P2;PMS_P1;PMS_P2;Temp;Humidity;BMP_temperature;BMP_pressure;BME280_temperature;BME280_humidity;BME280_pressure;Samples;Min_cycle;Max_cycle;Signal;HPM_P1;HPM_P2
2023/03/03 00:00:15;;;;;;;31.10;20.35;;;;;;;3.30;62.54;101771.56;688236;28;1166;-82
2023/03/03 00:00:36;;;;;;;33.25;20.90;;;;;;;3.30;62.46;101773.25;688167;28;1078;-83
2023/03/03 00:00:56;;;;;;;32.73;21.00;;;;;;;3.26;62.27;101767.84;685620;28;1149;-83
2023/03/03 00:01:17;;;;;;;30.58;20.60;;;;;;;3.35;62.29;101787.38;682974;28;1312;-82
2023/03/03 00:01:38;;;;;;;27.92;19.95;;;;;;;3.33;62.69;101783.78;685495;28;1117;-83
2023/03/03 00:01:59;;;;;;;27.42;19.67;;;;;;;3.30;62.18;101775.84;685787;28;910;-83
2023/03/03 00:02:19;;;;;;;29.25;19.75;;;;;;;3.25;62.31;101765.19;685663;28;1126;-83
2023/03/03 00:02:40;;;;;;;30.30;20.13;;;;;;;3.26;62.65;101767.84;685477;28;992;-82
2023/03/03 00:03:04;;;;;;;30.65;20.60;;;;;;;3.36;62.29;101784.03;688378;28;811;-82
2023/03/03 00:03:28;;;;;;;28.73;20.23;;;;;;;3.32;62.60;101782.00;691049;28;1157;-82
2023/03/03 00:03:48;;;;;;;28.17;19.67;;;;;;;3.34;62.43;101775.25;690927;28;1178;-83
2023/03/03 00:04:09;;;;;;;27.25;19.00;;;;;;;3.28;62.29;101771.47;692287;28;983;-83
2023/03/03 00:04:30;;;;;;;28.02;19.08;;;;;;;3.23;62.60;101756.41;690838;28;1150;-82
2023/03/03 00:04:50;;;;;;;27.80;18.73;;;;;;;3.25;62.52;101760.91;688153;28;987;-82
2023/03/03 00:05:14;;;;;;;28.35;19.08;;;;;;;3.27;62.46;101769.66;688324;28;1286;-83
2023/03/03 00:05:36;;;;;;;28.30;19.40;;;;;;;3.30;62.64;101771.56;685307;28;1542;-82
2023/03/03 00:05:57;;;;;;;29.35;19.55;;;;;;;3.30;62.36;101774.13;685298;28;1380;-83
2023/03/03 00:06:19;;;;;;;28.77;19.50;;;;;;;3.23;62.68;101757.31;688135;28;1570;-82
2023/03/03 00:06:40;;;;;;;26.77;19.02;;;;;;;3.27;62.59;101769.66;688101;28;1090;-83
2023/03/03 00:07:01;;;;;;;28.83;20.40;;;;;;;3.31;62.76;101772.47;685640;28;1166;-83
2023/03/03 00:07:22;;;;;;;28.90;19.58;;;;;;;3.23;62.81;101767.63;685616;28;1170;-83
2023/03/03 00:07:43;;;;;;;29.00;19.48;;;;;;;3.26;62.59;101756.66;685617;28;1109;-83
2023/03/03 00:08:04;;;;;;;28.05;18.92;;;;;;;3.28;62.61;101761.16;685759;28;1118;-83
2023/03/03 00:08:25;;;;;;;29.75;19.83;;;;;;;3.29;62.53;101764.59;685658;28;1095;-83
2023/03/03 00:08:46;;;;;;;29.42;19.73;;;;;;;3.20;62.86;101756.19;686053;28;1252;-83
2023/03/03 00:09:07;;;;;;;31.13;20.05;;;;;;;3.28;62.92;101762.81;686152;28;1471;-83
2023/03/03 00:09:27;;;;;;;29.87;19.10;;;;;;;3.30;62.91;101768.09;688898;28;1113;-83
2023/03/03 00:09:49;;;;;;;30.77;20.03;;;;;;;3.25;62.59;101770.34;688873;28;1244;-83
2023/03/03 00:10:12;;;;;;;28.25;19.48;;;;;;;3.25;62.56;101763.47;688847;28;1275;-83
2023/03/03 00:10:33;;;;;;;29.00;19.55;;;;;;;3.30;62.55;101773.25;688260;28;2047;-83
2023/03/03 00:10:54;;;;;;;28.85;19.10;;;;;;;3.30;62.44;101768.09;689747;28;957;-83
2023/03/03 00:11:15;;;;;;;29.33;19.50;;;;;;;3.24;62.64;101769.44;689189;28;1499;-83
2023/03/03 00:11:35;;;;;;;29.40;19.98;;;;;;;3.28;62.58;101765.41;688755;28;1162;-83
2023/03/03 00:11:59;;;;;;;29.90;20.40;;;;;;;3.30;62.48;101768.09;689059;28;847;-83
2023/03/03 00:12:25;;;;;;;30.58;20.13;;;;;;;3.28;62.87;101771.47;689001;28;940;-83
2023/03/03 00:12:48;;;;;;;29.86;20.04;;;;;;;3.28;62.57;101766.31;689049;28;1237;-83
2023/03/03 00:13:17;;;;;;;29.52;20.38;;;;;;;3.37;62.52;101776.41;688653;28;997;-83
2023/03/03 00:13:50;;;;;;;27.58;20.30;;;;;;;3.32;62.58;101764.84;688814;28;1132;-83
2023/03/03 00:14:22;;;;;;;29.15;20.83;;;;;;;3.31;62.85;101764.72;693995;28;2217;-82
2023/03/03 00:14:43;;;;;;;30.92;21.25;;;;;;;3.25;62.40;101749.72;690940;28;1130;-82
2023/03/03 00:15:17;;;;;;;29.65;20.42;;;;;;;3.31;62.52;101767.31;687699;28;1186;-82
2023/03/03 00:15:38;;;;;;;30.35;20.30;;;;;;;3.31;62.43;101759.56;690077;28;1016;-82
2023/03/03 00:16:23;;;;;;;30.70;20.30;;;;;;;3.36;62.15;101769.44;686352;28;958;-83
2023/03/03 00:16:43;;;;;;;30.15;19.80;;;;;;;3.27;62.69;101754.16;682653;28;1252;-82
2023/03/03 00:17:19;;;;;;;30.88;20.15;;;;;;;3.34;62.45;101762.38;680123;29;1322;-83
2023/03/03 00:17:40;;;;;;;31.65;20.42;;;;;;;3.27;62.35;101749.00;682966;29;1022;-83
2023/03/03 00:18:16;;;;;;;30.15;19.88;;;;;;;3.32;62.46;101763.94;688412;28;1236;-84
2023/03/03 00:18:41;;;;;;;28.65;19.10;;;;;;;3.25;62.41;101748.00;688095;28;1087;-83
2023/03/03 00:19:11;;;;;;;29.30;19.60;;;;;;;3.36;62.41;101759.13;688288;28;1169;-83
2023/03/03 00:19:37;;;;;;;31.08;20.38;;;;;;;3.32;62.30;101757.13;685504;28;1225;-83
2023/03/03 00:19:58;;;;;;;32.05;20.40;;;;;;;3.36;62.28;101763.41;690995;28;1426;-83
2023/03/03 00:20:35;;;;;;;31.47;20.13;;;;;;;3.37;62.74;101763.50;688291;28;1300;-83
2023/03/03 00:20:59;;;;;;;33.45;21.05;;;;;;;3.35;62.24;101770.22;688293;28;886;-82
2023/03/03 00:21:38;;;;;;;31.73;20.58;;;;;;;3.44;62.51;101771.69;688330;28;1110;-82
2023/03/03 00:21:59;;;;;;;34.13;21.23;;;;;;;3.42;62.31;101774.16;688303;28;1221;-82
2023/03/03 00:22:34;;;;;;;33.83;21.70;;;;;;;3.45;62.62;101776.06;688325;28;1124;-83
2023/03/03 00:22:57;;;;;;;30.33;20.95;;;;;;;3.40;62.21;101765.41;682957;29;890;-82
2023/03/03 00:23:18;;;;;;;29.12;20.12;;;;;;;3.42;62.45;101774.16;683009;29;1070;-83
2023/03/03 00:23:42;;;;;;;30.10;20.60;;;;;;;3.40;62.45;101778.31;685442;28;1241;-83
2023/03/03 00:24:24;;;;;;;30.35;20.30;;;;;;;3.42;62.22;101779.31;685497;28;1370;-83
2023/03/03 00:24:46;;;;;;;30.27;19.13;;;;;;;3.36;62.18;101769.44;685475;28;1111;-82
2023/03/03 00:25:25;;;;;;;30.80;19.38;;;;;;;3.40;62.83;101780.88;682929;28;1370;-83
2023/03/03 00:25:49;;;;;;;30.13;19.95;;;;;;;3.34;62.66;101764.94;686097;28;1137;-83
2023/03/03 00:26:29;;;;;;;28.92;19.50;;;;;;;3.38;62.65;101777.31;688244;28;1287;-82
2023/03/03 00:26:54;;;;;;;31.42;20.35;;;;;;;3.37;62.62;101770.34;693570;28;1252;-82
2023/03/03 00:27:38;;;;;;;32.10;20.10;;;;;;;3.35;62.81;101761.56;687885;28;1260;-83
2023/03/03 00:28:22;;;;;;;29.77;19.48;;;;;;;3.35;62.53;101761.56;683379;28;1053;-83
2023/03/03 00:28:53;;;;;;;30.63;19.30;;;;;;;3.44;62.31;101774.28;688095;28;1052;-82
2023/03/03 00:29:27;;;;;;;29.77;19.52;;;;;;;3.36;62.83;101760.81;690634;28;975;-83
2023/03/03 00:29:58;;;;;;;29.10;19.10;;;;;;;3.45;62.27;101776.97;691910;28;1126;-83
2023/03/03 00:30:26;;;;;;;30.75;19.88;;;;;;;3.44;62.45;101766.53;690980;28;1275;-83
2023/03/03 00:30:48;;;;;;;32.25;21.02;;;;;;;3.42;62.53;101763.81;685474;28;1218;-83
2023/03/03 00:31:35;;;;;;;33.08;20.70;;;;;;;3.47;62.10;101772.81;685637;28;1047;-82
2023/03/03 00:32:13;;;;;;;34.72;21.40;;;;;;;3.47;62.13;101769.31;684569;28;1118;-83
2023/03/03 00:32:49;;;;;;;35.63;21.85;;;;;;;3.44;62.74;101772.59;686943;28;948;-83
2023/03/03 00:33:27;;;;;;;35.88;21.67;;;;;;;3.38;62.11;101756.66;688260;28;1111;-83
2023/03/03 00:33:53;;;;;;;37.97;22.52;;;;;;;3.37;62.54;101762.59;682816;29;1238;-83
2023/03/03 00:34:18;;;;;;;37.72;22.70;;;;;;;3.42;62.63;101774.16;682966;28;996;-83
2023/03/03 00:34:40;;;;;;;37.25;21.75;;;;;;;3.40;62.28;101766.31;685345;28;1178;-82
2023/03/03 00:35:26;;;;;;;37.08;22.10;;;;;;;3.39;62.45;101768.78;688384;28;815;-83
2023/03/03 00:35:47;;;;;;;33.78;20.90;;;;;;;3.37;62.23;101765.19;688127;28;1241;-82
2023/03/03 00:36:13;;;;;;;34.27;20.87;;;;;;;3.44;62.71;101775.19;685581;28;1150;-83
2023/03/03 00:36:37;;;;;;;38.15;22.50;;;;;;;3.39;62.24;101767.06;688008;28;1340;-81
2023/03/03 00:36:58;;;;;;;38.00;23.15;;;;;;;3.41;62.72;101772.34;685594;28;850;-82
2023/03/03 00:37:24;;;;;;;35.67;22.13;;;;;;;3.44;62.19;101772.59;687885;28;1251;-83
2023/03/03 00:37:45;;;;;;;35.22;21.52;;;;;;;3.41;62.64;101768.09;688143;28;1268;-83
2023/03/03 00:38:13;;;;;;;34.75;21.52;;;;;;;3.39;62.41;101764.50;690944;28;1182;-83
2023/03/03 00:38:35;;;;;;;36.72;22.02;;;;;;;3.44;62.59;101772.59;690779;28;1376;-83
2023/03/03 00:39:20;;;;;;;37.88;22.56;;;;;;;3.43;62.19;101775.94;688409;28;922;-82
2023/03/03 00:39:41;;;;;;;37.50;23.00;;;;;;;3.39;62.10;101773.94;688013;28;1182;-82
2023/03/03 00:40:12;;;;;;;40.63;23.50;;;;;;;3.42;62.14;101774.16;685603;28;1045;-82
2023/03/03 00:40:36;;;;;;;41.38;23.42;;;;;;;3.37;62.40;101775.50;685414;28;1789;-83
2023/03/03 00:40:56;;;;;;;40.05;23.77;;;;;;;3.35;62.59;101771.91;688202;28;882;-83
2023/03/03 00:41:24;;;;;;;42.60;24.63;;;;;;;3.31;62.36;101770.78;688353;28;1074;-82
2023/03/03 00:41:44;;;;;;;44.60;25.70;;;;;;;3.35;62.75;101769.31;687966;28;2005;-82
2023/03/03 00:42:15;;;;;;;43.00;25.20;;;;;;;3.42;62.44;101784.47;688206;28;1190;-82
2023/03/03 00:42:35;;;;;;;43.40;25.20;;;;;;;3.34;62.41;101771.03;687891;28;1095;-83
2023/03/03 00:43:01;;;;;;;41.03;24.63;;;;;;;3.41;62.33;101782.69;688222;28;792;-83
2023/03/03 00:43:24;;;;;;;42.20;23.60;;;;;;;3.38;62.37;101783.34;688214;28;1076;-83
2023/03/03 00:43:45;;;;;;;43.50;24.02;;;;;;;3.31;62.27;101769.91;682792;29;1203;-83
2023/03/03 00:44:48;;;;;;;44.63;25.75;;;;;;;3.32;62.77;101772.59;685474;28;1260;-83
2023/03/03 00:45:27;;;;;;;46.20;26.08;;;;;;;3.34;62.03;101780.44;680048;29;1218;-83
2023/03/03 00:45:52;;;;;;;46.10;25.65;;;;;;;3.37;62.44;101783.25;685326;28;1168;-82
2023/03/03 00:46:18;;;;;;;43.08;25.45;;;;;;;3.34;62.70;101772.69;689582;28;1093;-83
2023/03/03 00:46:39;;;;;;;42.30;25.23;;;;;;;3.35;62.11;101785.72;688196;28;1023;-83
2023/03/03 00:47:09;;;;;;;44.72;26.08;;;;;;;3.33;62.58;101764.06;690989;28;818;-83
2023/03/03 00:47:36;;;;;;;44.42;26.80;;;;;;;3.36;62.11;101776.31;687720;28;1167;-83
2023/03/03 00:47:58;;;;;;;45.67;27.00;;;;;;;3.30;62.28;101768.09;688358;28;906;-83
2023/03/03 00:48:18;;;;;;;47.00;27.00;;;;;;;3.38;62.10;101787.63;688286;28;1146;-82
2023/03/03 00:48:42;;;;;;;45.90;26.70;;;;;;;3.35;62.26;101782.22;690744;28;1037;-83
2023/03/03 00:49:21;;;;;;;42.70;25.67;;;;;;;3.31;62.42;101777.63;688189;28;1275;-83
2023/03/03 00:49:42;;;;;;;45.50;25.92;;;;;;;3.28;62.18;101773.13;688181;28;1067;-82
2023/03/03 00:50:06;;;;;;;45.25;25.85;;;;;;;3.34;62.26;101780.44;688197;28;1288;-83
2023/03/03 00:50:33;;;;;;;45.50;25.95;;;;;;;3.36;62.08;101778.88;688171;28;1973;-83
2023/03/03 00:50:59;;;;;;;44.20;25.38;;;;;;;3.35;62.11;101782.22;685797;28;1274;-82
2023/03/03 00:51:28;;;;;;;44.40;24.88;;;;;;;3.32;62.24;101782.91;685535;28;1436;-83
2023/03/03 00:51:49;;;;;;;44.30;25.27;;;;;;;3.31;62.53;101775.06;690881;28;858;-82
2023/03/03 00:52:15;;;;;;;43.17;25.23;;;;;;;3.36;62.13;101784.03;693743;28;1210;-82
2023/03/03 00:52:38;;;;;;;42.85;25.40;;;;;;;3.37;62.33;101780.69;690718;28;1027;-83
2023/03/03 00:53:11;;;;;;;43.55;26.05;;;;;;;3.31;62.29;101775.94;691125;28;756;-82
2023/03/03 00:53:31;;;;;;;44.20;26.75;;;;;;;3.39;62.33;101781.69;690682;28;1131;-82
2023/03/03 00:53:52;;;;;;;44.27;26.50;;;;;;;3.36;62.46;101776.31;688220;28;1181;-83
2023/03/03 00:54:13;;;;;;;42.15;25.42;;;;;;;3.33;62.27;101773.47;682851;29;960;-82
2023/03/03 00:54:34;;;;;;;41.95;25.42;;;;;;;3.40;62.39;101780.88;682871;29;1022;-83
2023/03/03 00:54:54;;;;;;;41.75;25.58;;;;;;;3.33;62.25;101773.47;688268;28;780;-83
2023/03/03 00:55:15;;;;;;;44.13;26.75;;;;;;;3.34;62.35;101767.53;688268;28;1149;-83
2023/03/03 00:55:35;;;;;;;42.50;26.33;;;;;;;3.38;62.16;101775.59;685278;28;1354;-83
2023/03/03 00:55:57;;;;;;;40.35;25.50;;;;;;;3.33;62.62;101769.22;691103;28;755;-83
2023/03/03 00:56:17;;;;;;;39.65;24.33;;;;;;;3.38;62.37;101778.19;690904;28;1392;-83
2023/03/03 00:56:38;;;;;;;39.25;23.77;;;;;;;3.31;62.16;101765.59;688191;28;1110;-83
2023/03/03 00:56:59;;;;;;;42.05;24.45;;;;;;;3.32;62.39;101767.44;685539;28;1302;-83
2023/03/03 00:57:19;;;;;;;42.45;24.50;;;;;;;3.33;62.26;101771.81;685499;28;1185;-83
2023/03/03 00:57:41;;;;;;;43.65;24.48;;;;;;;3.35;62.05;101771.91;687972;28;1378;-83
2023/03/03 00:58:04;;;;;;;44.17;24.25;;;;;;;3.43;62.33;101786.25;690883;28;1297;-83
2023/03/03 00:58:29;;;;;;;45.33;25.25;;;;;;;3.34;62.06;101773.59;688249;28;1242;-82
2023/03/03 00:58:51;;;;;;;45.35;24.73;;;;;;;3.35;62.15;101782.22;688244;28;1490;-83
2023/03/03 00:59:13;;;;;;;44.65;25.00;;;;;;;3.33;62.27;101776.06;685478;28;1337;-83
2023/03/03 00:59:34;;;;;;;45.10;25.75;;;;;;;3.35;62.04;101782.22;682808;29;1082;-83
2023/03/03 00:59:54;;;;;;;41.93;24.70;;;;;;;3.32;62.19;101782.00;683015;29;862;-83
2023/03/03 01:00:16;;;;;;;39.00;23.55;;;;;;;3.38;62.25;101791.09;685595;28;1011;-82
2023/03/03 01:01:20;;;;;;;38.83;22.95;;;;;;;3.39;61.85;101795.47;687384;28;1307;-83
2023/03/03 01:02:03;;;;;;;42.13;25.35;;;;;;;3.31;62.06;101772.47;689065;28;692;-83
2023/03/03 01:02:34;;;;;;;46.35;25.48;;;;;;;3.31;62.18;101775.06;690226;28;1323;-83
2023/03/03 01:02:55;;;;;;;46.20;25.20;;;;;;;3.32;62.32;101776.84;690998;28;894;-83
2023/03/03 01:03:21;;;;;;;46.83;25.30;;;;;;;3.36;62.20;101781.47;690949;28;984;-82
2023/03/03 01:03:42;;;;;;;42.35;25.50;;;;;;;3.33;62.31;101776.06;690883;28;1000;-83
2023/03/03 01:04:03;;;;;;;42.78;25.83;;;;;;;3.39;62.42;101782.56;690803;28;1097;-82
2023/03/03 01:04:24;;;;;;;42.30;25.48;;;;;;;3.34;62.08;101777.84;688242;28;1142;-83
2023/03/03 01:04:50;;;;;;;44.27;25.57;;;;;;;3.42;62.29;101787.97;690887;28;929;-82
2023/03/03 01:05:12;;;;;;;43.65;24.98;;;;;;;3.37;62.17;101778.09;688249;28;1136;-83
2023/03/03 01:05:34;;;;;;;42.08;24.42;;;;;;;3.41;61.76;101787.84;688008;28;1332;-83
2023/03/03 01:05:55;;;;;;;43.25;25.15;;;;;;;3.32;61.76;101775.19;688315;28;740;-82
2023/03/03 01:06:16;;;;;;;43.77;24.83;;;;;;;3.39;61.88;101784.25;685437;28;1262;-83
2023/03/03 01:06:37;;;;;;;45.15;25.38;;;;;;;3.34;62.22;101778.75;688074;28;971;-83
2023/03/03 01:06:57;;;;;;;46.22;25.98;;;;;;;3.42;61.75;101794.78;685522;28;831;-82
2023/03/03 01:07:18;;;;;;;45.97;26.27;;;;;;;3.31;61.82;101769.91;690962;28;1047;-83
2023/03/03 01:07:39;;;;;;;45.47;26.07;;;;;;;3.42;62.18;101784.47;687983;28;1167;-82
2023/03/03 01:08:00;;;;;;;44.22;25.13;;;;;;;3.41;62.25;101790.41;691170;28;1216;-83
2023/03/03 01:08:21;;;;;;;43.25;24.67;;;;;;;3.44;62.12;101793.25;688746;28;1018;-83
2023/03/03 01:08:47;;;;;;;43.75;24.50;;;;;;;3.34;62.49;101775.25;686001;28;1282;-83
2023/03/03 01:09:07;;;;;;;43.33;24.48;;;;;;;3.38;62.15;101777.31;688673;28;1355;-82
2023/03/03 01:09:28;;;;;;;41.83;25.00;;;;;;;3.41;61.95;101785.25;688607;28;1016;-82
2023/03/03 01:09:49;;;;;;;43.55;25.05;;;;;;;3.42;61.82;101784.47;688776;28;906;-83
2023/03/03 01:10:10;;;;;;;43.40;25.38;;;;;;;3.30;62.06;101771.56;688735;28;1191;-82
2023/03/03 01:10:35;;;;;;;43.20;24.50;;;;;;;3.34;62.12;101780.44;688671;28;1981;-82
2023/03/03 01:10:59;;;;;;;43.85;25.95;;;;;;;3.39;61.97;101790.28;686191;28;846;-83
2023/03/03 01:11:24;;;;;;;42.67;26.15;;;;;;;3.33;62.39;101776.06;688666;28;977;-83
2023/03/03 01:11:45;;;;;;;42.58;26.08;;;;;;;3.39;62.07;101779.09;691396;28;1027;-82
2023/03/03 01:12:06;;;;;;;42.70;24.92;;;;;;;3.45;61.76;101789.88;693941;28;1127;-83
2023/03/03 01:12:26;;;;;;;46.25;25.60;;;;;;;3.34;61.83;101775.25;691370;28;910;-82
2023/03/03 01:12:48;;;;;;;47.97;25.80;;;;;;;3.34;61.83;101772.69;691381;28;1215;-83
2023/03/03 01:13:09;;;;;;;48.78;27.45;;;;;;;3.35;61.81;101779.63;688763;28;993;-82
2023/03/03 01:13:33;;;;;;;47.50;27.30;;;;;;;3.31;62.05;101767.31;688562;28;1198;-83
2023/03/03 01:13:53;;;;;;;48.08;27.48;;;;;;;3.32;61.97;101774.25;686119;28;858;-82
2023/03/03 01:14:14;;;;;;;49.10;27.52;;;;;;;3.38;62.02;101785.03;685970;28;1250;-82
2023/03/03 01:14:35;;;;;;;51.10;27.85;;;;;;;3.41;61.63;101786.16;691290;28;1256;-83
2023/03/03 01:14:56;;;;;;;49.83;27.33;;;;;;;3.41;61.84;101782.69;686089;28;828;-83
2023/03/03 01:15:17;;;;;;;45.63;26.25;;;;;;;3.37;62.40;101780.69;688835;28;1039;-83
2023/03/03 01:15:39;;;;;;;44.00;25.20;;;;;;;3.38;61.90;101790.22;688491;28;1265;-83
2023/03/03 01:16:01;;;;;;;42.80;24.77;;;;;;;3.32;61.78;101782.00;688907;28;775;-83
2023/03/03 01:16:21;;;;;;;44.90;25.08;;;;;;;3.32;61.84;101774.25;688779;28;1158;-82
2023/03/03 01:16:46;;;;;;;46.53;26.20;;;;;;;3.31;61.62;101772.47;691277;28;1347;-83
2023/03/03 01:17:07;;;;;;;46.85;26.02;;;;;;;3.39;61.85;101789.41;688657;28;1233;-83
2023/03/03 01:17:28;;;;;;;45.08;25.40;;;;;;;3.38;62.15;101790.22;691561;28;996;-83
2023/03/03 01:17:50;;;;;;;43.33;25.15;;;;;;;3.38;62.12;101782.47;688689;28;1168;-83
2023/03/03 01:18:11;;;;;;;41.72;25.13;;;;;;;3.33;61.80;101779.56;688773;28;1002;-82
2023/03/03 01:18:33;;;;;;;41.63;25.35;;;;;;;3.34;61.90;101781.34;688545;28;1252;-82
2023/03/03 01:18:54;;;;;;;44.13;25.55;;;;;;;3.30;62.02;101770.69;691512;28;813;-82
2023/03/03 01:19:15;;;;;;;45.90;25.95;;;;;;;3.28;62.11;101771.47;685842;28;1257;-83
2023/03/03 01:19:36;;;;;;;46.90;25.83;;;;;;;3.27;62.26;101774.81;685958;28;1064;-83
2023/03/03 01:19:56;;;;;;;45.37;26.50;;;;;;;3.28;61.95;101768.88;686043;28;1260;-82
2023/03/03 01:20:17;;;;;;;44.80;26.17;;;;;;;3.35;61.93;101777.06;688744;28;996;-82
2023/03/03 01:20:39;;;;;;;45.05;26.40;;;;;;;3.31;62.14;101772.47;688517;28;1271;-83
2023/03/03 01:21:00;;;;;;;44.05;25.23;;;;;;;3.34;61.92;101776.19;683526;29;819;-83
2023/03/03 01:21:21;;;;;;;45.58;25.77;;;;;;;3.37;62.18;101783.25;686001;28;1275;-82
2023/03/03 01:21:42;;;;;;;46.17;26.48;;;;;;;3.38;61.82;101772.16;685906;28;929;-83
2023/03/03 01:22:02;;;;;;;44.53;26.30;;;;;;;3.35;62.04;101765.06;688760;28;1118;-83
2023/03/03 01:22:23;;;;;;;45.00;26.20;;;;;;;3.27;62.26;101759.31;685961;28;1269;-82
2023/03/03 01:22:44;;;;;;;46.00;25.63;;;;;;;3.31;61.98;101754.41;685947;28;1242;-83
2023/03/03 01:23:05;;;;;;;47.22;25.70;;;;;;;3.35;61.95;101770.22;686068;28;1291;-83
2023/03/03 01:23:25;;;;;;;44.25;24.58;;;;;;;3.34;61.80;101760.69;686101;28;1023;-83
2023/03/03 01:23:46;;;;;;;41.50;24.75;;;;;;;3.34;62.19;101755.53;688680;28;1269;-83
2023/03/03 01:24:07;;;;;;;39.45;24.60;;;;;;;3.34;61.85;101754.63;688714;28;1093;-82
2023/03/03 01:24:27;;;;;;;41.13;25.90;;;;;;;3.37;62.18;101762.59;688628;28;1060;-83
2023/03/03 01:24:48;;;;;;;43.13;25.75;;;;;;;3.39;61.79;101764.50;688551;28;1810;-83
2023/03/03 01:25:09;;;;;;;45.85;26.65;;;;;;;3.38;61.82;101761.81;686014;28;1031;-83
2023/03/03 01:25:32;;;;;;;45.83;26.17;;;;;;;3.44;61.76;101774.28;685891;28;1128;-82
2023/03/03 01:25:52;;;;;;;45.60;26.57;;;;;;;3.42;61.72;101768.97;688835;28;838;-83
2023/03/03 01:26:13;;;;;;;43.03;25.60;;;;;;;3.41;61.87;101768.09;683353;29;1042;-83
2023/03/03 01:26:33;;;;;;;43.47;26.02;;;;;;;3.39;61.84;101768.78;683119;29;1203;-83
2023/03/03 01:26:54;;;;;;;41.85;25.30;;;;;;;3.36;61.88;101768.56;685877;28;798;-83
2023/03/03 01:27:16;;;;;;;43.05;25.80;;;;;;;3.32;62.06;101762.28;686025;28;1200;-82
2023/03/03 01:27:37;;;;;;;44.13;25.58;;;;;;;3.40;62.15;101767.97;685767;28;1297;-83
2023/03/03 01:27:58;;;;;;;45.40;25.42;;;;;;;3.34;61.91;101764.94;688840;28;835;-82
2023/03/03 01:28:18;;;;;;;45.07;25.50;;;;;;;3.34;62.32;101767.53;686300;28;1292;-82
2023/03/03 01:28:39;;;;;;;43.72;25.65;;;;;;;3.31;61.92;101759.56;688404;28;1279;-82
2023/03/03 01:29:00;;;;;;;42.85;24.80;;;;;;;3.39;61.91;101773.94;691417;28;1062;-83
2023/03/03 01:29:20;;;;;;;41.80;23.93;;;;;;;3.38;62.00;101770.44;691451;28;1000;-82
2023/03/03 01:29:41;;;;;;;42.83;24.23;;;;;;;3.34;61.91;101764.94;691280;28;1191;-83
2023/03/03 01:30:04;;;;;;;42.35;24.42;;;;;;;3.35;61.78;101771.91;691527;28;728;-83
2023/03/03 01:30:25;;;;;;;44.30;24.80;;;;;;;3.33;61.89;101765.72;688550;28;1911;-82
2023/03/03 01:30:46;;;;;;;42.05;24.30;;;;;;;3.38;61.67;101775.59;688675;28;1228;-83
2023/03/03 01:31:06;;;;;;;42.92;24.55;;;;;;;3.37;61.55;101772.94;691316;28;1164;-83
2023/03/03 01:31:27;;;;;;;43.38;24.67;;;;;;;3.38;61.69;101777.31;691438;28;1102;-83
2023/03/03 01:31:47;;;;;;;44.70;24.60;;;;;;;3.33;62.04;101763.16;685947;28;1139;-83
2023/03/03 01:32:08;;;;;;;41.33;24.00;;;;;;;3.38;61.84;101779.88;686007;28;1295;-82
2023/03/03 01:32:29;;;;;;;40.08;24.00;;;;;;;3.36;61.67;101779.75;683299;28;1131;-82
2023/03/03 01:32:49;;;;;;;39.53;24.10;;;;;;;3.32;61.97;101770.00;685969;28;1055;-83
2023/03/03 01:33:10;;;;;;;41.65;24.77;;;;;;;3.33;61.92;101768.31;688618;28;1062;-83
2023/03/03 01:33:32;;;;;;;41.88;25.00;;;;;;;3.37;61.92;101771.22;688600;28;1083;-83
2023/03/03 01:33:53;;;;;;;41.65;23.90;;;;;;;3.32;61.85;101766.53;688591;28;1171;-83
2023/03/03 01:34:13;;;;;;;41.30;24.40;;;;;;;3.40;61.89;101771.47;691383;28;940;-83
2023/03/03 01:34:34;;;;;;;41.87;24.40;;;;;;;3.35;62.10;101771.91;691233;28;975;-82
2023/03/03 01:34:55;;;;;;;41.73;25.30;;;;;;;3.40;61.81;101778.31;691410;28;1033;-82
2023/03/03 01:35:16;;;;;;;42.58;25.10;;;;;;;3.32;61.84;101761.38;691303;28;1153;-82
2023/03/03 01:35:36;;;;;;;40.90;24.80;;;;;;;3.34;61.66;101770.09;693932;28;1163;-83
2023/03/03 01:35:58;;;;;;;41.92;24.98;;;;;;;3.36;61.66;101778.88;688648;28;1358;-83
2023/03/03 01:36:23;;;;;;;40.95;25.02;;;;;;;3.24;61.88;101760.81;688569;28;1082;-82
2023/03/03 01:36:44;;;;;;;42.20;24.70;;;;;;;3.35;61.96;101782.22;688443;28;1158;-83
2023/03/03 01:37:04;;;;;;;43.83;25.00;;;;;;;3.35;61.93;101777.06;685941;28;1252;-83
2023/03/03 01:37:25;;;;;;;43.95;24.95;;;;;;;3.37;61.71;101781.56;685997;28;1199;-83
2023/03/03 01:37:45;;;;;;;45.13;25.15;;;;;;;3.33;61.94;101776.06;686021;28;1172;-83
2023/03/03 01:38:07;;;;;;;41.97;24.27;;;;;;;3.40;62.04;101780.88;688538;28;1254;-83
2023/03/03 01:38:28;;;;;;;42.87;24.37;;;;;;;3.34;61.83;101771.03;685871;28;1152;-82
2023/03/03 01:38:49;;;;;;;42.50;24.40;;;;;;;3.33;61.88;101773.47;688658;28;1440;-83
2023/03/03 01:39:11;;;;;;;44.10;25.05;;;;;;;3.41;62.24;101783.59;688634;28;1441;-82
2023/03/03 01:39:31;;;;;;;44.92;25.77;;;;;;;3.32;61.87;101774.25;685918;28;1068;-83
2023/03/03 01:39:53;;;;;;;45.33;26.27;;;;;;;3.35;61.79;101779.63;691321;28;1302;-82
2023/03/03 01:40:18;;;;;;;43.50;25.63;;;;;;;3.40;62.02;101786.06;688630;28;1382;-83
2023/03/03 01:40:40;;;;;;;43.40;25.60;;;;;;;3.37;61.63;101778.97;685797;28;1245;-82
2023/03/03 01:41:01;;;;;;;43.90;25.27;;;;;;;3.37;62.17;101783.25;685884;28;969;-83
2023/03/03 01:41:22;;;;;;;44.67;25.48;;;;;;;3.39;61.72;101776.50;691291;28;1405;-83
2023/03/03 01:41:42;;;;;;;44.90;25.80;;;;;;;3.38;62.04;101783.34;688594;28;971;-83
2023/03/03 01:42:03;;;;;;;45.57;25.87;;;;;;;3.42;61.97;101782.81;685985;28;1139;-83
2023/03/03 01:42:28;;;;;;;44.35;25.20;;;;;;;3.37;61.79;101770.34;691308;28;918;-83
2023/03/03 01:42:48;;;;;;;44.35;24.80;;;;;;;3.36;62.07;101771.13;688577;28;1132;-82
2023/03/03 01:43:13;;;;;;;43.67;24.60;;;;;;;3.42;61.78;101776.72;685905;28;1112;-83
2023/03/03 01:43:43;;;;;;;46.58;25.10;;;;;;;3.47;61.73;101784.81;691270;28;1101;-82
2023/03/03 01:44:05;;;;;;;44.90;24.83;;;;;;;3.45;61.61;101784.72;688637;28;1147;-83
2023/03/03 01:44:25;;;;;;;41.67;24.60;;;;;;;3.40;61.94;101775.72;691416;28;1147;-83
2023/03/03 01:44:46;;;;;;;41.00;24.10;;;;;;;3.45;61.95;101778.63;691317;28;1143;-83
2023/03/03 01:45:14;;;;;;;40.47;24.08;;;;;;;3.45;62.11;101783.81;685917;28;1186;-83
2023/03/03 01:45:47;;;;;;;42.00;24.77;;;;;;;3.46;62.19;101781.34;691135;28;999;-83
2023/03/03 01:46:07;;;;;;;41.30;24.90;;;;;;;3.47;61.80;101783.13;688493;28;1389;-83
2023/03/03 01:46:57;;;;;;;41.53;24.77;;;;;;;3.47;62.10;101782.22;688588;28;1149;-83
2023/03/03 01:47:32;;;;;;;42.53;24.10;;;;;;;3.47;62.01;101777.97;685809;28;1122;-83
2023/03/03 01:48:00;;;;;;;42.88;24.55;;;;;;;3.41;61.71;101762.03;684704;28;1287;-82
2023/03/03 01:48:35;;;;;;;43.60;25.17;;;;;;;3.46;62.04;101770.09;685900;28;1082;-82
2023/03/03 01:49:05;;;;;;;41.15;24.38;;;;;;;3.46;62.05;101764.94;685981;28;897;-83
2023/03/03 01:49:33;;;;;;;38.92;23.67;;;;;;;3.44;62.26;101767.44;691225;28;1377;-82
2023/03/03 01:50:09;;;;;;;41.55;23.55;;;;;;;3.54;62.10;101784.47;688607;28;1494;-82
2023/03/03 01:50:50;;;;;;;41.92;23.98;;;;;;;3.48;62.13;101774.59;691215;28;1907;-82
2023/03/03 01:51:24;;;;;;;41.85;24.50;;;;;;;3.50;61.83;101773.03;685679;28;1332;-83
2023/03/03 01:51:53;;;;;;;41.30;24.13;;;;;;;3.47;61.89;101754.75;691327;28;1248;-82
2023/03/03 01:52:31;;;;;;;42.33;24.40;;;;;;;3.70;61.11;101765.84;691775;28;1208;-83
2023/03/03 01:52:53;;;;;;;43.15;24.45;;;;;;;3.70;61.27;101764.16;694076;28;882;-83
2023/03/03 01:53:22;;;;;;;43.20;24.85;;;;;;;3.76;60.92;101770.53;691311;28;1289;-83
2023/03/03 01:53:50;;;;;;;43.38;25.25;;;;;;;3.82;60.99;101777.03;691328;28;994;-83
2023/03/03 01:54:20;;;;;;;42.03;24.15;;;;;;;3.85;61.02;101772.91;691280;28;1356;-83
2023/03/03 01:54:49;;;;;;;43.47;24.45;;;;;;;3.76;60.75;101758.53;691033;28;1350;-83
2023/03/03 01:55:18;;;;;;;43.75;25.08;;;;;;;3.74;60.94;101760.09;691294;28;908;-82
2023/03/03 01:55:40;;;;;;;42.90;25.05;;;;;;;3.85;60.63;101780.66;688365;28;988;-83
2023/03/03 01:56:04;;;;;;;41.38;24.20;;;;;;;3.85;60.71;101785.81;685842;28;1361;-82